sensor_id;sensor_type;location;lat;lon;timestamp;temperature;humidity
32536;DHT22;18974;50.838;4.636;2023-06-26T00:00:20;23.20;99.90
32536;DHT22;18974;50.838;4.636;2023-06-26T00:02:45;23.00;99.90
32536;DHT22;18974;50.838;4.636;2023-06-26T00:05:11;23.00;99.90
32536;DHT22;18974;50.838;4.636;2023-06-26T00:07:39;23.00;99.90
32536;DHT22;18974;50.838;4.636;2023-06-26T00:10:05;22.90;99.90
32536;DHT22;18974;50.838;4.636;2023-06-26T00:12:31;23.00;99.90
32536;DHT22;18974;50.838;4.636;2023-06-26T00:14:57;23.00;99.90
32536;DHT22;18974;50.838;4.636;2023-06-26T00:17:23;22.90;99.90
32536;DHT22;18974;50.838;4.636;2023-06-26T00:19:49;22.80;99.90
32536;DHT22;18974;50.838;4.636;2023-06-26T00:22:15;22.80;99.90
32536;DHT22;18974;50.838;4.636;2023-06-26T00:24:40;22.80;99.90
32536;DHT22;18974;50.838;4.636;2023-06-26T00:27:06;22.80;99.90
32536;DHT22;18974;50.838;4.636;2023-06-26T00:29:32;22.70;99.90
32536;DHT22;18974;50.838;4.636;2023-06-26T00:31:58;22.70;99.90
32536;DHT22;18974;50.838;4.636;2023-06-26T00:34:23;22.60;99.90
32536;DHT22;18974;50.838;4.636;2023-06-26T00:36:49;22.60;99.90
32536;DHT22;18974;50.838;4.636;2023-06-26T00:39:15;22.60;99.90
32536;DHT22;18974;50.838;4.636;2023-06-26T00:41:41;22.60;99.90
32536;DHT22;18974;50.838;4.636;2023-06-26T00:44:06;22.50;99.90
32536;DHT22;18974;50.838;4.636;2023-06-26T00:46:33;22.50;99.90
32536;DHT22;18974;50.838;4.636;2023-06-26T00:49:02;22.50;99.90
32536;DHT22;18974;50.838;4.636;2023-06-26T00:51:30;22.40;99.90
32536;DHT22;18974;50.838;4.636;2023-06-26T00:53:56;22.30;99.90
32536;DHT22;18974;50.838;4.636;2023-06-26T00:56:22;22.20;99.90
32536;DHT22;18974;50.838;4.636;2023-06-26T00:58:48;22.20;99.90
32536;DHT22;18974;50.838;4.636;2023-06-26T01:01:14;22.20;99.90
32536;DHT22;18974;50.838;4.636;2023-06-26T01:03:43;22.10;99.90
32536;DHT22;18974;50.838;4.636;2023-06-26T01:06:11;22.00;99.90
32536;DHT22;18974;50.838;4.636;2023-06-26T01:08:39;22.10;99.90
32536;DHT22;18974;50.838;4.636;2023-06-26T01:11:05;22.00;99.90
32536;DHT22;18974;50.838;4.636;2023-06-26T01:13:31;21.90;99.90
32536;DHT22;18974;50.838;4.636;2023-06-26T01:15:58;21.90;99.90
32536;DHT22;18974;50.838;4.636;2023-06-26T01:18:25;21.80;99.90
32536;DHT22;18974;50.838;4.636;2023-06-26T01:20:52;21.70;99.90
32536;DHT22;18974;50.838;4.636;2023-06-26T01:28:34;21.60;99.90
32536;DHT22;18974;50.838;4.636;2023-06-26T01:31:02;21.60;99.90
32536;DHT22;18974;50.838;4.636;2023-06-26T01:33:30;21.60;99.90
32536;DHT22;18974;50.838;4.636;2023-06-26T01:35:55;21.60;99.90
32536;DHT22;18974;50.838;4.636;2023-06-26T01:38:21;21.60;99.90
32536;DHT22;18974;50.838;4.636;2023-06-26T01:40:50;21.50;99.90
32536;DHT22;18974;50.838;4.636;2023-06-26T01:43:39;21.40;99.90
32536;DHT22;18974;50.838;4.636;2023-06-26T01:46:14;21.40;99.90
32536;DHT22;18974;50.838;4.636;2023-06-26T01:48:54;21.30;99.90
32536;DHT22;18974;50.838;4.636;2023-06-26T01:51:21;21.30;99.90
32536;DHT22;18974;50.838;4.636;2023-06-26T01:53:54;21.30;99.90
32536;DHT22;18974;50.838;4.636;2023-06-26T01:56:22;21.30;99.90
32536;DHT22;18974;50.838;4.636;2023-06-26T01:58:50;21.30;99.90
32536;DHT22;18974;50.838;4.636;2023-06-26T02:01:20;21.30;99.90
32536;DHT22;18974;50.838;4.636;2023-06-26T02:03:46;21.30;99.90
32536;DHT22;18974;50.838;4.636;2023-06-26T02:06:11;21.20;99.90
32536;DHT22;18974;50.838;4.636;2023-06-26T02:08:37;21.20;99.90
32536;DHT22;18974;50.838;4.636;2023-06-26T02:11:03;21.30;99.90
32536;DHT22;18974;50.838;4.636;2023-06-26T02:13:28;21.10;99.90
32536;DHT22;18974;50.838;4.636;2023-06-26T02:15:54;21.10;99.90
32536;DHT22;18974;50.838;4.636;2023-06-26T02:18:20;21.00;99.90
32536;DHT22;18974;50.838;4.636;2023-06-26T02:20:48;21.00;99.90
32536;DHT22;18974;50.838;4.636;2023-06-26T02:23:13;20.90;99.90
32536;DHT22;18974;50.838;4.636;2023-06-26T02:25:39;20.90;99.90
32536;DHT22;18974;50.838;4.636;2023-06-26T02:28:05;20.90;99.90
32536;DHT22;18974;50.838;4.636;2023-06-26T02:30:30;21.00;99.90
32536;DHT22;18974;50.838;4.636;2023-06-26T02:32:56;20.90;99.90
32536;DHT22;18974;50.838;4.636;2023-06-26T02:35:22;20.90;99.90
32536;DHT22;18974;50.838;4.636;2023-06-26T02:37:47;20.90;99.90
32536;DHT22;18974;50.838;4.636;2023-06-26T02:40:14;20.80;99.90
32536;DHT22;18974;50.838;4.636;2023-06-26T02:42:40;20.70;99.90
32536;DHT22;18974;50.838;4.636;2023-06-26T02:45:06;20.60;99.90
32536;DHT22;18974;50.838;4.636;2023-06-26T02:47:31;20.60;99.90
32536;DHT22;18974;50.838;4.636;2023-06-26T02:49:57;20.60;99.90
32536;DHT22;18974;50.838;4.636;2023-06-26T02:52:23;20.60;99.90
32536;DHT22;18974;50.838;4.636;2023-06-26T02:54:48;20.50;99.90
32536;DHT22;18974;50.838;4.636;2023-06-26T02:57:14;20.50;99.90
32536;DHT22;18974;50.838;4.636;2023-06-26T02:59:40;20.60;99.90
32536;DHT22;18974;50.838;4.636;2023-06-26T03:02:06;20.60;99.90
32536;DHT22;18974;50.838;4.636;2023-06-26T03:04:31;20.60;99.90
32536;DHT22;18974;50.838;4.636;2023-06-26T03:07:02;20.70;99.90
32536;DHT22;18974;50.838;4.636;2023-06-26T03:09:28;20.70;99.90
32536;DHT22;18974;50.838;4.636;2023-06-26T03:11:53;20.60;99.90
32536;DHT22;18974;50.838;4.636;2023-06-26T03:14:21;20.50;99.90
32536;DHT22;18974;50.838;4.636;2023-06-26T03:16:46;20.50;99.90
32536;DHT22;18974;50.838;4.636;2023-06-26T03:19:12;20.50;99.90
32536;DHT22;18974;50.838;4.636;2023-06-26T03:21:38;20.50;99.90
32536;DHT22;18974;50.838;4.636;2023-06-26T03:24:03;20.40;99.90
32536;DHT22;18974;50.838;4.636;2023-06-26T03:26:29;20.40;99.90
32536;DHT22;18974;50.838;4.636;2023-06-26T03:28:55;20.40;99.90
32536;DHT22;18974;50.838;4.636;2023-06-26T03:31:20;20.30;99.90
32536;DHT22;18974;50.838;4.636;2023-06-26T03:33:46;20.30;99.90
32536;DHT22;18974;50.838;4.636;2023-06-26T03:36:12;20.20;99.90
32536;DHT22;18974;50.838;4.636;2023-06-26T03:38:38;20.20;99.90
32536;DHT22;18974;50.838;4.636;2023-06-26T03:41:03;20.10;99.90
32536;DHT22;18974;50.838;4.636;2023-06-26T03:43:29;20.10;99.90
32536;DHT22;18974;50.838;4.636;2023-06-26T03:45:55;20.10;99.90
32536;DHT22;18974;50.838;4.636;2023-06-26T03:48:20;20.10;99.90
32536;DHT22;18974;50.838;4.636;2023-06-26T03:50:46;20.00;99.90
32536;DHT22;18974;50.838;4.636;2023-06-26T03:53:12;19.90;99.90
32536;DHT22;18974;50.838;4.636;2023-06-26T03:55:37;20.00;99.90
32536;DHT22;18974;50.838;4.636;2023-06-26T03:58:04;19.90;99.90
32536;DHT22;18974;50.838;4.636;2023-06-26T04:00:30;20.00;99.90
32536;DHT22;18974;50.838;4.636;2023-06-26T04:02:56;20.00;99.90
32536;DHT22;18974;50.838;4.636;2023-06-26T04:05:22;19.90;99.90
32536;DHT22;18974;50.838;4.636;2023-06-26T04:07:52;19.90;99.90
32536;DHT22;18974;50.838;4.636;2023-06-26T04:10:18;19.90;99.90
32536;DHT22;18974;50.838;4.636;2023-06-26T04:12:43;19.80;99.90
32536;DHT22;18974;50.838;4.636;2023-06-26T04:15:09;19.90;99.90
32536;DHT22;18974;50.838;4.636;2023-06-26T04:17:35;19.80;99.90
32536;DHT22;18974;50.838;4.636;2023-06-26T04:20:01;19.80;99.90
32536;DHT22;18974;50.838;4.636;2023-06-26T04:22:26;19.80;99.90
32536;DHT22;18974;50.838;4.636;2023-06-26T04:24:52;19.80;99.90
32536;DHT22;18974;50.838;4.636;2023-06-26T04:27:18;19.80;99.90
32536;DHT22;18974;50.838;4.636;2023-06-26T04:29:44;19.90;99.90
32536;DHT22;18974;50.838;4.636;2023-06-26T04:32:09;19.90;99.90
32536;DHT22;18974;50.838;4.636;2023-06-26T04:34:35;19.80;99.90
32536;DHT22;18974;50.838;4.636;2023-06-26T04:37:06;19.80;99.90
32536;DHT22;18974;50.838;4.636;2023-06-26T04:39:32;19.80;99.90
32536;DHT22;18974;50.838;4.636;2023-06-26T04:41:58;19.80;99.90
32536;DHT22;18974;50.838;4.636;2023-06-26T04:44:24;19.90;99.90
32536;DHT22;18974;50.838;4.636;2023-06-26T04:46:49;20.00;99.90
32536;DHT22;18974;50.838;4.636;2023-06-26T04:49:17;20.00;99.90
32536;DHT22;18974;50.838;4.636;2023-06-26T04:51:43;20.10;99.90
32536;DHT22;18974;50.838;4.636;2023-06-26T04:54:12;20.00;99.90
32536;DHT22;18974;50.838;4.636;2023-06-26T04:56:38;20.00;99.90
32536;DHT22;18974;50.838;4.636;2023-06-26T04:59:07;20.00;99.90
32536;DHT22;18974;50.838;4.636;2023-06-26T05:01:32;20.00;99.90
32536;DHT22;18974;50.838;4.636;2023-06-26T05:03:58;20.10;99.90
32536;DHT22;18974;50.838;4.636;2023-06-26T05:06:24;20.10;99.90
32536;DHT22;18974;50.838;4.636;2023-06-26T05:08:50;20.10;99.90
32536;DHT22;18974;50.838;4.636;2023-06-26T05:11:16;20.00;99.90
32536;DHT22;18974;50.838;4.636;2023-06-26T05:13:41;20.10;99.90
32536;DHT22;18974;50.838;4.636;2023-06-26T05:16:08;20.20;99.90
32536;DHT22;18974;50.838;4.636;2023-06-26T05:18:34;20.30;99.90
32536;DHT22;18974;50.838;4.636;2023-06-26T05:21:00;20.40;99.90
32536;DHT22;18974;50.838;4.636;2023-06-26T05:23:27;20.20;99.90
32536;DHT22;18974;50.838;4.636;2023-06-26T05:25:56;20.30;99.90
32536;DHT22;18974;50.838;4.636;2023-06-26T05:28:22;20.40;99.90
32536;DHT22;18974;50.838;4.636;2023-06-26T05:30:50;20.50;99.90
32536;DHT22;18974;50.838;4.636;2023-06-26T05:33:17;20.50;99.90
32536;DHT22;18974;50.838;4.636;2023-06-26T05:35:45;20.60;99.90
32536;DHT22;18974;50.838;4.636;2023-06-26T05:38:13;20.60;99.90
32536;DHT22;18974;50.838;4.636;2023-06-26T05:40:40;20.60;99.90
32536;DHT22;18974;50.838;4.636;2023-06-26T05:43:09;20.60;99.90
32536;DHT22;18974;50.838;4.636;2023-06-26T05:45:34;20.60;99.90
32536;DHT22;18974;50.838;4.636;2023-06-26T05:48:00;20.70;99.90
32536;DHT22;18974;50.838;4.636;2023-06-26T05:50:26;20.80;99.90
32536;DHT22;18974;50.838;4.636;2023-06-26T05:52:52;20.80;99.90
32536;DHT22;18974;50.838;4.636;2023-06-26T05:55:18;21.00;99.90
32536;DHT22;18974;50.838;4.636;2023-06-26T05:57:45;21.00;99.90
32536;DHT22;18974;50.838;4.636;2023-06-26T06:00:12;21.10;99.90
32536;DHT22;18974;50.838;4.636;2023-06-26T06:02:38;21.10;99.90
32536;DHT22;18974;50.838;4.636;2023-06-26T06:05:04;20.90;99.90
32536;DHT22;18974;50.838;4.636;2023-06-26T06:07:32;21.00;99.90
32536;DHT22;18974;50.838;4.636;2023-06-26T06:09:59;21.10;99.90
32536;DHT22;18974;50.838;4.636;2023-06-26T06:12:24;21.00;99.90
32536;DHT22;18974;50.838;4.636;2023-06-26T06:14:51;21.10;99.90
32536;DHT22;18974;50.838;4.636;2023-06-26T06:17:16;21.20;99.90
32536;DHT22;18974;50.838;4.636;2023-06-26T06:19:42;21.20;99.90
32536;DHT22;18974;50.838;4.636;2023-06-26T06:22:07;21.40;99.90
32536;DHT22;18974;50.838;4.636;2023-06-26T06:24:33;21.40;99.90
32536;DHT22;18974;50.838;4.636;2023-06-26T06:26:59;21.50;99.90
32536;DHT22;18974;50.838;4.636;2023-06-26T06:29:24;21.60;99.90
32536;DHT22;18974;50.838;4.636;2023-06-26T06:31:50;21.80;99.90
32536;DHT22;18974;50.838;4.636;2023-06-26T06:34:16;21.80;99.90
32536;DHT22;18974;50.838;4.636;2023-06-26T06:36:42;21.70;99.90
32536;DHT22;18974;50.838;4.636;2023-06-26T06:39:08;21.70;99.90
32536;DHT22;18974;50.838;4.636;2023-06-26T06:41:34;21.80;99.90
32536;DHT22;18974;50.838;4.636;2023-06-26T06:43:59;22.00;99.90
32536;DHT22;18974;50.838;4.636;2023-06-26T06:46:25;22.10;99.90
32536;DHT22;18974;50.838;4.636;2023-06-26T06:48:52;22.20;99.90
32536;DHT22;18974;50.838;4.636;2023-06-26T06:51:18;22.30;99.90
32536;DHT22;18974;50.838;4.636;2023-06-26T06:53:44;22.30;99.90
32536;DHT22;18974;50.838;4.636;2023-06-26T06:56:09;22.40;99.90
32536;DHT22;18974;50.838;4.636;2023-06-26T06:58:35;22.50;99.90
32536;DHT22;18974;50.838;4.636;2023-06-26T07:01:01;22.60;99.90
32536;DHT22;18974;50.838;4.636;2023-06-26T07:03:30;22.60;99.90
32536;DHT22;18974;50.838;4.636;2023-06-26T07:05:56;22.60;99.90
32536;DHT22;18974;50.838;4.636;2023-06-26T07:08:21;22.60;99.90
32536;DHT22;18974;50.838;4.636;2023-06-26T07:10:47;22.80;99.90
32536;DHT22;18974;50.838;4.636;2023-06-26T07:13:13;22.90;99.90
32536;DHT22;18974;50.838;4.636;2023-06-26T07:15:38;23.00;99.90
32536;DHT22;18974;50.838;4.636;2023-06-26T07:18:04;23.20;99.90
32536;DHT22;18974;50.838;4.636;2023-06-26T07:20:30;23.30;99.90
32536;DHT22;18974;50.838;4.636;2023-06-26T07:22:55;23.30;99.90
32536;DHT22;18974;50.838;4.636;2023-06-26T07:25:21;23.40;99.90
32536;DHT22;18974;50.838;4.636;2023-06-26T07:27:47;23.50;99.90
32536;DHT22;18974;50.838;4.636;2023-06-26T07:30:12;23.70;99.90
32536;DHT22;18974;50.838;4.636;2023-06-26T07:32:38;23.70;99.90
32536;DHT22;18974;50.838;4.636;2023-06-26T07:35:06;23.80;99.90
32536;DHT22;18974;50.838;4.636;2023-06-26T07:37:31;23.90;99.90
32536;DHT22;18974;50.838;4.636;2023-06-26T07:39:57;24.00;99.90
32536;DHT22;18974;50.838;4.636;2023-06-26T07:42:23;24.10;99.90
32536;DHT22;18974;50.838;4.636;2023-06-26T07:44:48;24.20;99.90
32536;DHT22;18974;50.838;4.636;2023-06-26T07:47:15;24.20;99.90
32536;DHT22;18974;50.838;4.636;2023-06-26T07:49:40;24.30;99.90
32536;DHT22;18974;50.838;4.636;2023-06-26T07:52:06;24.40;99.90
32536;DHT22;18974;50.838;4.636;2023-06-26T07:54:32;24.50;99.90
32536;DHT22;18974;50.838;4.636;2023-06-26T07:56:59;24.60;99.90
32536;DHT22;18974;50.838;4.636;2023-06-26T07:59:27;24.60;99.90
32536;DHT22;18974;50.838;4.636;2023-06-26T08:01:54;24.70;99.90
32536;DHT22;18974;50.838;4.636;2023-06-26T08:04:21;24.90;99.90
32536;DHT22;18974;50.838;4.636;2023-06-26T08:06:49;24.80;99.90
32536;DHT22;18974;50.838;4.636;2023-06-26T08:09:16;24.70;99.90
32536;DHT22;18974;50.838;4.636;2023-06-26T08:11:41;24.90;99.90
32536;DHT22;18974;50.838;4.636;2023-06-26T08:14:07;25.00;99.90
32536;DHT22;18974;50.838;4.636;2023-06-26T08:16:33;25.00;99.90
32536;DHT22;18974;50.838;4.636;2023-06-26T08:18:58;24.90;99.90
32536;DHT22;18974;50.838;4.636;2023-06-26T08:21:24;24.90;99.90
32536;DHT22;18974;50.838;4.636;2023-06-26T08:23:49;25.10;99.90
32536;DHT22;18974;50.838;4.636;2023-06-26T08:26:15;25.20;99.90
32536;DHT22;18974;50.838;4.636;2023-06-26T08:28:41;25.40;99.90
32536;DHT22;18974;50.838;4.636;2023-06-26T08:31:07;25.50;99.50
32536;DHT22;18974;50.838;4.636;2023-06-26T08:33:33;25.50;99.10
32536;DHT22;18974;50.838;4.636;2023-06-26T08:35:58;25.60;99.20
32536;DHT22;18974;50.838;4.636;2023-06-26T08:38:24;25.60;98.90
32536;DHT22;18974;50.838;4.636;2023-06-26T08:40:50;25.60;98.40
32536;DHT22;18974;50.838;4.636;2023-06-26T08:43:15;25.80;99.10
32536;DHT22;18974;50.838;4.636;2023-06-26T08:45:41;25.80;99.50
32536;DHT22;18974;50.838;4.636;2023-06-26T08:48:08;25.90;98.70
32536;DHT22;18974;50.838;4.636;2023-06-26T08:50:35;25.90;98.90
32536;DHT22;18974;50.838;4.636;2023-06-26T08:55:41;26.30;98.30
32536;DHT22;18974;50.838;4.636;2023-06-26T08:58:07;26.20;98.00
32536;DHT22;18974;50.838;4.636;2023-06-26T09:00:34;26.20;98.50
32536;DHT22;18974;50.838;4.636;2023-06-26T09:03:01;26.20;98.30
32536;DHT22;18974;50.838;4.636;2023-06-26T09:05:28;26.40;98.10
32536;DHT22;18974;50.838;4.636;2023-06-26T09:07:54;26.50;96.90
32536;DHT22;18974;50.838;4.636;2023-06-26T09:10:24;26.50;96.80
32536;DHT22;18974;50.838;4.636;2023-06-26T09:12:50;26.60;95.80
32536;DHT22;18974;50.838;4.636;2023-06-26T09:15:16;26.50;96.00
32536;DHT22;18974;50.838;4.636;2023-06-26T09:17:44;26.60;95.70
32536;DHT22;18974;50.838;4.636;2023-06-26T09:20:10;26.70;96.20
32536;DHT22;18974;50.838;4.636;2023-06-26T09:22:42;26.60;95.30
32536;DHT22;18974;50.838;4.636;2023-06-26T09:25:09;26.80;95.20
32536;DHT22;18974;50.838;4.636;2023-06-26T09:27:35;26.90;94.30
32536;DHT22;18974;50.838;4.636;2023-06-26T09:30:05;27.00;95.00
32536;DHT22;18974;50.838;4.636;2023-06-26T09:32:37;26.90;94.50
32536;DHT22;18974;50.838;4.636;2023-06-26T09:35:04;26.60;95.40
32536;DHT22;18974;50.838;4.636;2023-06-26T09:37:30;26.70;95.00
32536;DHT22;18974;50.838;4.636;2023-06-26T09:39:55;26.70;94.80
32536;DHT22;18974;50.838;4.636;2023-06-26T09:42:21;26.60;94.40
32536;DHT22;18974;50.838;4.636;2023-06-26T09:44:48;26.50;94.70
32536;DHT22;18974;50.838;4.636;2023-06-26T09:47:19;26.60;95.50
32536;DHT22;18974;50.838;4.636;2023-06-26T09:49:45;26.70;95.30
32536;DHT22;18974;50.838;4.636;2023-06-26T09:52:14;27.10;94.10
32536;DHT22;18974;50.838;4.636;2023-06-26T09:54:42;27.10;94.00
32536;DHT22;18974;50.838;4.636;2023-06-26T09:57:09;26.90;93.70
32536;DHT22;18974;50.838;4.636;2023-06-26T09:59:36;26.80;93.40
32536;DHT22;18974;50.838;4.636;2023-06-26T10:02:01;26.70;93.80
32536;DHT22;18974;50.838;4.636;2023-06-26T10:04:27;26.40;94.10
32536;DHT22;18974;50.838;4.636;2023-06-26T10:06:56;26.60;94.20
32536;DHT22;18974;50.838;4.636;2023-06-26T10:09:23;27.00;94.00
32536;DHT22;18974;50.838;4.636;2023-06-26T10:11:57;27.10;93.70
32536;DHT22;18974;50.838;4.636;2023-06-26T10:14:28;27.00;93.30
32536;DHT22;18974;50.838;4.636;2023-06-26T10:16:58;27.20;94.10
32536;DHT22;18974;50.838;4.636;2023-06-26T10:19:26;27.40;93.70
32536;DHT22;18974;50.838;4.636;2023-06-26T10:21:54;27.60;93.50
32536;DHT22;18974;50.838;4.636;2023-06-26T10:24:22;27.70;93.20
32536;DHT22;18974;50.838;4.636;2023-06-26T10:26:52;27.60;93.20
32536;DHT22;18974;50.838;4.636;2023-06-26T10:29:19;27.30;93.40
32536;DHT22;18974;50.838;4.636;2023-06-26T10:31:50;27.00;92.40
32536;DHT22;18974;50.838;4.636;2023-06-26T10:34:16;27.00;93.00
32536;DHT22;18974;50.838;4.636;2023-06-26T10:36:42;26.90;93.40
32536;DHT22;18974;50.838;4.636;2023-06-26T10:39:08;27.00;93.80
32536;DHT22;18974;50.838;4.636;2023-06-26T10:41:41;26.80;93.70
32536;DHT22;18974;50.838;4.636;2023-06-26T10:44:11;26.80;94.10
32536;DHT22;18974;50.838;4.636;2023-06-26T10:47:06;26.60;93.20
32536;DHT22;18974;50.838;4.636;2023-06-26T10:49:32;26.20;93.40
32536;DHT22;18974;50.838;4.636;2023-06-26T10:52:01;26.00;93.40
32536;DHT22;18974;50.838;4.636;2023-06-26T10:54:30;25.90;93.40
32536;DHT22;18974;50.838;4.636;2023-06-26T10:56:56;25.80;92.70
32536;DHT22;18974;50.838;4.636;2023-06-26T10:59:26;25.90;93.00
32536;DHT22;18974;50.838;4.636;2023-06-26T11:01:57;26.20;93.60
32536;DHT22;18974;50.838;4.636;2023-06-26T11:04:45;26.20;93.00
32536;DHT22;18974;50.838;4.636;2023-06-26T11:07:19;26.30;92.90
32536;DHT22;18974;50.838;4.636;2023-06-26T11:12:44;26.40;93.40
32536;DHT22;18974;50.838;4.636;2023-06-26T11:15:19;26.30;93.50
32536;DHT22;18974;50.838;4.636;2023-06-26T11:17:46;26.30;93.50
32536;DHT22;18974;50.838;4.636;2023-06-26T11:20:14;26.40;93.10
32536;DHT22;18974;50.838;4.636;2023-06-26T11:22:42;26.60;92.70
32536;DHT22;18974;50.838;4.636;2023-06-26T11:25:09;27.00;92.40
32536;DHT22;18974;50.838;4.636;2023-06-26T11:30:11;27.60;91.40
32536;DHT22;18974;50.838;4.636;2023-06-26T11:32:47;27.70;91.00
32536;DHT22;18974;50.838;4.636;2023-06-26T11:35:13;28.10;91.50
32536;DHT22;18974;50.838;4.636;2023-06-26T11:37:39;28.40;90.60
32536;DHT22;18974;50.838;4.636;2023-06-26T11:40:21;28.10;86.00
32536;DHT22;18974;50.838;4.636;2023-06-26T11:42:47;27.30;88.40
32536;DHT22;18974;50.838;4.636;2023-06-26T11:45:13;27.10;90.60
32536;DHT22;18974;50.838;4.636;2023-06-26T11:47:39;26.90;90.20
32536;DHT22;18974;50.838;4.636;2023-06-26T11:50:05;26.80;91.20
32536;DHT22;18974;50.838;4.636;2023-06-26T11:52:33;27.10;91.90
32536;DHT22;18974;50.838;4.636;2023-06-26T11:54:58;27.30;90.90
32536;DHT22;18974;50.838;4.636;2023-06-26T11:57:24;27.30;91.60
32536;DHT22;18974;50.838;4.636;2023-06-26T11:59:50;27.10;90.90
32536;DHT22;18974;50.838;4.636;2023-06-26T12:02:17;27.20;91.40
32536;DHT22;18974;50.838;4.636;2023-06-26T12:04:44;27.70;90.80
32536;DHT22;18974;50.838;4.636;2023-06-26T12:07:10;28.00;90.50
32536;DHT22;18974;50.838;4.636;2023-06-26T12:09:45;27.80;91.20
32536;DHT22;18974;50.838;4.636;2023-06-26T12:12:12;27.70;90.00
32536;DHT22;18974;50.838;4.636;2023-06-26T12:14:39;27.80;91.60
32536;DHT22;18974;50.838;4.636;2023-06-26T12:17:12;28.10;90.10
32536;DHT22;18974;50.838;4.636;2023-06-26T12:19:46;28.50;89.20
32536;DHT22;18974;50.838;4.636;2023-06-26T12:22:13;28.30;89.10
32536;DHT22;18974;50.838;4.636;2023-06-26T12:24:40;28.30;88.60
32536;DHT22;18974;50.838;4.636;2023-06-26T12:27:10;28.60;88.20
32536;DHT22;18974;50.838;4.636;2023-06-26T12:29:37;28.60;88.80
32536;DHT22;18974;50.838;4.636;2023-06-26T12:32:03;28.80;89.90
32536;DHT22;18974;50.838;4.636;2023-06-26T12:34:32;29.10;83.30
32536;DHT22;18974;50.838;4.636;2023-06-26T12:37:06;29.30;85.20
32536;DHT22;18974;50.838;4.636;2023-06-26T12:42:19;29.40;85.90
32536;DHT22;18974;50.838;4.636;2023-06-26T12:44:45;29.50;85.80
32536;DHT22;18974;50.838;4.636;2023-06-26T12:47:12;29.10;84.80
32536;DHT22;18974;50.838;4.636;2023-06-26T12:49:41;28.80;88.40
32536;DHT22;18974;50.838;4.636;2023-06-26T12:52:09;29.00;86.70
32536;DHT22;18974;50.838;4.636;2023-06-26T12:54:38;29.20;88.00
32536;DHT22;18974;50.838;4.636;2023-06-26T12:57:04;29.40;86.70
32536;DHT22;18974;50.838;4.636;2023-06-26T12:59:30;29.40;86.20
32536;DHT22;18974;50.838;4.636;2023-06-26T13:01:57;29.60;85.80
32536;DHT22;18974;50.838;4.636;2023-06-26T13:04:23;29.60;83.20
32536;DHT22;18974;50.838;4.636;2023-06-26T13:06:49;29.50;85.00
32536;DHT22;18974;50.838;4.636;2023-06-26T13:09:15;29.40;83.00
32536;DHT22;18974;50.838;4.636;2023-06-26T13:11:41;29.30;84.30
32536;DHT22;18974;50.838;4.636;2023-06-26T13:14:07;29.50;84.30
32536;DHT22;18974;50.838;4.636;2023-06-26T13:16:33;29.50;83.90
32536;DHT22;18974;50.838;4.636;2023-06-26T13:18:59;29.40;84.40
32536;DHT22;18974;50.838;4.636;2023-06-26T13:21:25;29.10;83.50
32536;DHT22;18974;50.838;4.636;2023-06-26T13:23:52;28.80;83.80
32536;DHT22;18974;50.838;4.636;2023-06-26T13:26:18;28.60;85.20
32536;DHT22;18974;50.838;4.636;2023-06-26T13:28:44;28.50;86.30
32536;DHT22;18974;50.838;4.636;2023-06-26T13:31:09;28.30;86.30
32536;DHT22;18974;50.838;4.636;2023-06-26T13:33:38;28.20;87.20
32536;DHT22;18974;50.838;4.636;2023-06-26T13:36:03;28.00;86.00
32536;DHT22;18974;50.838;4.636;2023-06-26T13:38:32;27.80;85.70
32536;DHT22;18974;50.838;4.636;2023-06-26T13:40:58;27.70;87.80
32536;DHT22;18974;50.838;4.636;2023-06-26T13:43:26;27.60;85.90
32536;DHT22;18974;50.838;4.636;2023-06-26T13:45:53;27.60;85.40
32536;DHT22;18974;50.838;4.636;2023-06-26T13:48:18;27.60;87.40
32536;DHT22;18974;50.838;4.636;2023-06-26T13:50:45;27.40;86.90
32536;DHT22;18974;50.838;4.636;2023-06-26T13:53:11;27.30;86.80
32536;DHT22;18974;50.838;4.636;2023-06-26T13:55:37;27.20;89.00
32536;DHT22;18974;50.838;4.636;2023-06-26T13:58:04;27.20;86.40
32536;DHT22;18974;50.838;4.636;2023-06-26T14:00:31;27.20;87.40
32536;DHT22;18974;50.838;4.636;2023-06-26T14:03:04;27.30;86.90
32536;DHT22;18974;50.838;4.636;2023-06-26T14:05:34;27.40;88.30
32536;DHT22;18974;50.838;4.636;2023-06-26T14:08:03;27.30;88.10
32536;DHT22;18974;50.838;4.636;2023-06-26T14:10:29;27.20;88.60
32536;DHT22;18974;50.838;4.636;2023-06-26T14:12:55;27.10;88.00
32536;DHT22;18974;50.838;4.636;2023-06-26T14:15:21;27.00;87.00
32536;DHT22;18974;50.838;4.636;2023-06-26T14:17:46;26.90;87.50
32536;DHT22;18974;50.838;4.636;2023-06-26T14:20:21;26.80;88.10
32536;DHT22;18974;50.838;4.636;2023-06-26T14:22:48;26.80;88.90
32536;DHT22;18974;50.838;4.636;2023-06-26T14:25:16;26.80;88.80
32536;DHT22;18974;50.838;4.636;2023-06-26T14:27:41;26.90;87.80
32536;DHT22;18974;50.838;4.636;2023-06-26T14:30:08;26.90;87.70
32536;DHT22;18974;50.838;4.636;2023-06-26T14:32:34;26.80;89.60
32536;DHT22;18974;50.838;4.636;2023-06-26T14:35:01;26.90;88.60
32536;DHT22;18974;50.838;4.636;2023-06-26T14:37:29;26.90;88.60
32536;DHT22;18974;50.838;4.636;2023-06-26T14:39:54;27.00;87.60
32536;DHT22;18974;50.838;4.636;2023-06-26T14:42:20;27.00;87.60
32536;DHT22;18974;50.838;4.636;2023-06-26T14:44:46;27.10;86.20
32536;DHT22;18974;50.838;4.636;2023-06-26T14:47:19;27.10;85.40
32536;DHT22;18974;50.838;4.636;2023-06-26T14:49:45;27.30;86.40
32536;DHT22;18974;50.838;4.636;2023-06-26T14:52:11;27.10;86.70
32536;DHT22;18974;50.838;4.636;2023-06-26T14:54:36;27.10;85.90
32536;DHT22;18974;50.838;4.636;2023-06-26T14:57:03;27.20;86.00
32536;DHT22;18974;50.838;4.636;2023-06-26T14:59:29;27.20;89.70
32536;DHT22;18974;50.838;4.636;2023-06-26T15:01:55;27.20;88.90
32536;DHT22;18974;50.838;4.636;2023-06-26T15:04:20;27.20;88.50
32536;DHT22;18974;50.838;4.636;2023-06-26T15:06:46;27.30;88.10
32536;DHT22;18974;50.838;4.636;2023-06-26T15:09:12;27.20;86.90
32536;DHT22;18974;50.838;4.636;2023-06-26T15:11:37;27.40;86.10
32536;DHT22;18974;50.838;4.636;2023-06-26T15:14:03;27.40;87.90
32536;DHT22;18974;50.838;4.636;2023-06-26T15:16:28;27.30;86.40
32536;DHT22;18974;50.838;4.636;2023-06-26T15:18:54;27.10;88.10
32536;DHT22;18974;50.838;4.636;2023-06-26T15:21:20;27.10;87.30
32536;DHT22;18974;50.838;4.636;2023-06-26T15:23:50;26.90;88.30
32536;DHT22;18974;50.838;4.636;2023-06-26T15:26:16;26.90;87.10
32536;DHT22;18974;50.838;4.636;2023-06-26T15:28:41;26.70;88.10
32536;DHT22;18974;50.838;4.636;2023-06-26T15:31:07;26.70;89.20
32536;DHT22;18974;50.838;4.636;2023-06-26T15:33:33;26.70;88.50
32536;DHT22;18974;50.838;4.636;2023-06-26T15:35:58;26.50;89.90
32536;DHT22;18974;50.838;4.636;2023-06-26T15:38:24;26.60;88.60
32536;DHT22;18974;50.838;4.636;2023-06-26T15:40:50;26.50;88.00
32536;DHT22;18974;50.838;4.636;2023-06-26T15:43:15;26.30;86.90